Time;durP1;ratioP1;P1;durP2;ratioP2;P2;SDS_P1;SDS_P2;PMS_P1;PMS_P2;Temp;Humidity;BMP_temperature;BMP_pressure;BME280_temperature;BME280_humidity;BME280_pressure;Samples;Min_cycle;Max_cycle;Signal;HPM_P1;HPM_P2
2022/11/22 00:00:40;;;;;;;5.70;2.28;;;;;;;7.05;83.45;98114.63;10512638;27;20068;-71
2022/11/22 00:05:41;;;;;;;5.28;2.50;;;;;;;7.15;83.69;98113.72;10527230;28;20188;-71
2022/11/22 00:10:42;;;;;;;4.90;2.00;;;;;;;7.20;83.72;98108.78;10528382;28;20036;-70
2022/11/22 00:15:44;;;;;;;3.88;2.40;;;;;;;7.23;83.79;98103.19;10527258;28;20051;-69
2022/11/22 00:20:46;;;;;;;4.55;2.13;;;;;;;7.24;83.86;98102.19;10526137;27;20054;-70
2022/11/22 00:25:47;;;;;;;4.65;2.10;;;;;;;7.19;83.18;98089.44;10532250;27;20047;-71
2022/11/22 00:30:50;;;;;;;4.38;2.40;;;;;;;7.18;82.91;98082.47;10553275;27;20051;-68
2022/11/22 00:35:51;;;;;;;4.13;2.28;;;;;;;7.19;83.02;98062.97;10538734;27;20130;-70
2022/11/22 00:40:52;;;;;;;5.15;2.72;;;;;;;7.16;83.25;98057.16;10536234;28;20051;-70
2022/11/22 00:45:54;;;;;;;3.65;2.13;;;;;;;7.20;83.29;98055.84;10540411;28;20052;-71
2022/11/22 00:50:55;;;;;;;3.22;2.58;;;;;;;7.26;83.04;98047.28;10558792;28;20070;-71
2022/11/22 00:55:56;;;;;;;4.45;2.30;;;;;;;7.27;83.21;98038.38;10568814;27;20040;-73
2022/11/22 01:00:58;;;;;;;4.13;2.75;;;;;;;7.28;83.25;98037.41;10525388;27;20040;-70
2022/11/22 01:05:59;;;;;;;5.15;2.55;;;;;;;7.32;83.25;98057.25;10528817;28;20047;-70
2022/11/22 01:11:01;;;;;;;3.95;2.38;;;;;;;7.33;83.33;98053.63;10526691;28;20722;-70
2022/11/22 01:16:05;;;;;;;2.75;2.13;;;;;;;7.35;82.72;98056.94;10525981;28;20056;-69
2022/11/22 01:21:07;;;;;;;3.60;2.70;;;;;;;7.33;82.92;98064.22;10524159;28;20051;-71
2022/11/22 01:26:09;;;;;;;5.38;3.08;;;;;;;7.41;83.01;98066.88;10524391;28;20105;-69
2022/11/22 01:31:10;;;;;;;6.65;2.42;;;;;;;7.41;83.20;98076.66;10511426;27;20044;-72
2022/11/22 01:36:11;;;;;;;3.95;2.22;;;;;;;7.36;83.03;98063.06;10566430;28;20054;-71
2022/11/22 01:41:13;;;;;;;4.25;2.30;;;;;;;7.39;83.54;98079.47;10525200;28;20048;-70
2022/11/22 01:46:36;;;;;;;4.75;2.22;;;;;;;7.49;83.60;98089.09;10526398;28;20087;-69
2022/11/22 01:51:40;;;;;;;4.10;2.40;;;;;;;7.52;84.07;98104.69;10526155;28;20047;-71
2022/11/22 01:56:44;;;;;;;2.63;1.40;;;;;;;7.49;84.16;98091.75;10518486;28;20051;-70
2022/11/22 02:01:46;;;;;;;6.32;2.40;;;;;;;7.47;84.78;98091.91;10519079;28;20039;-70
2022/11/22 02:06:55;;;;;;;3.40;2.15;;;;;;;7.50;85.52;98096.06;10526852;28;20047;-69
2022/11/22 02:12:00;;;;;;;3.60;1.98;;;;;;;7.53;85.51;98104.53;10514560;28;20035;-69
2022/11/22 02:17:01;;;;;;;5.07;2.60;;;;;;;7.53;85.65;98086.00;10523831;28;20154;-71
2022/11/22 02:22:17;;;;;;;6.43;2.20;;;;;;;7.50;86.08;98096.06;10560982;28;20131;-70
2022/11/22 02:27:19;;;;;;;3.25;2.08;;;;;;;7.43;86.56;98091.41;10564541;28;20048;-71
2022/11/22 02:32:20;;;;;;;3.40;2.15;;;;;;;7.55;86.75;98093.78;10571723;28;20043;-73
2022/11/22 02:37:28;;;;;;;4.25;2.53;;;;;;;7.67;86.10;98107.56;10553937;28;20036;-70
2022/11/22 02:42:30;;;;;;;3.78;2.08;;;;;;;7.62;86.52;98110.69;10528977;28;20043;-71
2022/11/22 02:47:31;;;;;;;6.30;2.47;;;;;;;7.72;86.06;98127.31;10569370;27;20556;-69
2022/11/22 02:52:32;;;;;;;7.70;2.85;;;;;;;7.84;85.79;98130.53;10526418;28;20052;-70
2022/11/22 02:57:34;;;;;;;6.72;3.97;;;;;;;7.91;85.88;98120.97;10527640;28;20053;-71
2022/11/22 03:02:35;;;;;;;4.65;2.65;;;;;;;7.98;85.36;98131.72;10518172;27;20426;-70
2022/11/22 03:07:36;;;;;;;4.47;2.90;;;;;;;7.97;86.15;98130.06;10536748;27;20051;-69
2022/11/22 03:12:38;;;;;;;4.55;3.03;;;;;;;7.89;86.82;98120.25;10527398;28;20059;-68
2022/11/22 03:17:39;;;;;;;4.40;3.65;;;;;;;7.93;87.71;98134.03;10537608;28;20144;-69
2022/11/22 03:22:41;;;;;;;5.93;3.88;;;;;;;7.91;87.93;98142.16;10536031;28;24102;-69
2022/11/22 03:27:42;;;;;;;4.57;3.63;;;;;;;7.97;88.49;98135.34;10529800;28;20044;-69
2022/11/22 03:32:43;;;;;;;5.78;4.22;;;;;;;7.86;89.93;98135.66;10533255;28;20048;-70
2022/11/22 03:37:45;;;;;;;4.97;4.05;;;;;;;7.94;89.14;98135.69;10577079;27;20058;-72
2022/11/22 03:42:46;;;;;;;5.47;4.30;;;;;;;7.93;89.79;98150.75;10594574;28;20038;-72
2022/11/22 03:47:47;;;;;;;6.32;4.28;;;;;;;7.76;90.45;98155.16;10585297;28;20051;-71
2022/11/22 03:52:49;;;;;;;5.15;3.97;;;;;;;7.90;91.11;98155.56;10557340;28;20139;-68
2022/11/22 03:57:50;;;;;;;4.07;3.58;;;;;;;7.89;91.38;98159.19;10532209;28;20043;-70
2022/11/22 04:02:52;;;;;;;8.52;4.20;;;;;;;7.93;91.33;98169.31;10561106;28;20051;-69
2022/11/22 04:07:56;;;;;;;7.50;4.50;;;;;;;8.01;90.85;98163.22;10537666;28;20070;-70
2022/11/22 04:12:58;;;;;;;8.15;4.50;;;;;;;8.02;90.70;98164.88;10539907;27;20070;-70
2022/11/22 04:17:59;;;;;;;7.07;4.97;;;;;;;7.99;91.50;98173.16;10518510;28;20505;-69
2022/11/22 04:23:03;;;;;;;5.88;4.93;;;;;;;8.02;91.40;98174.66;10515528;28;20059;-70
2022/11/22 04:28:06;;;;;;;8.50;4.60;;;;;;;8.00;91.90;98166.88;10510254;28;20703;-70
2022/11/22 04:33:09;;;;;;;5.13;4.43;;;;;;;8.00;91.78;98155.41;10525272;27;20578;-69
2022/11/22 04:38:15;;;;;;;5.20;4.30;;;;;;;8.01;92.26;98165.84;10542038;28;20047;-71
2022/11/22 04:49:04;;;;;;;6.90;4.75;;;;;;;8.05;92.52;98169.03;10373684;28;20052;-70
2022/11/22 04:54:05;;;;;;;7.65;4.65;;;;;;;8.10;92.18;98178.16;10539916;28;20052;-72
2022/11/22 04:59:07;;;;;;;8.75;4.65;;;;;;;8.00;92.38;98172.16;10528127;28;20070;-70
2022/11/22 05:04:08;;;;;;;5.90;4.70;;;;;;;8.06;92.34;98179.47;10521513;28;20569;-69
2022/11/22 05:09:09;;;;;;;6.32;4.38;;;;;;;8.10;92.35;98199.34;10523016;28;20052;-69
2022/11/22 05:14:11;;;;;;;5.15;3.72;;;;;;;8.00;92.90;98197.81;10525179;28;20048;-71
2022/11/22 05:19:12;;;;;;;7.93;4.28;;;;;;;7.88;93.34;98191.94;10504423;28;20051;-69
2022/11/22 05:24:13;;;;;;;10.93;4.55;;;;;;;7.90;93.33;98197.94;10497759;28;20062;-68
2022/11/22 05:29:14;;;;;;;7.78;4.63;;;;;;;7.89;93.15;98212.16;10484411;28;20051;-70
2022/11/22 05:34:16;;;;;;;7.85;4.70;;;;;;;7.93;93.14;98203.75;10503388;28;20411;-69
2022/11/22 05:39:17;;;;;;;5.10;3.90;;;;;;;7.93;92.65;98214.34;10487918;28;20063;-69
2022/11/22 05:44:18;;;;;;;5.88;3.50;;;;;;;7.82;93.27;98216.41;10504024;28;20043;-73
2022/11/22 05:49:20;;;;;;;8.43;4.20;;;;;;;7.94;92.91;98231.06;10528885;27;20142;-69
2022/11/22 05:54:21;;;;;;;6.85;3.33;;;;;;;7.87;92.21;98227.38;10530659;28;20111;-71
2022/11/22 05:59:23;;;;;;;6.20;3.67;;;;;;;7.69;92.61;98228.25;10515170;28;20243;-73
2022/11/22 06:04:24;;;;;;;6.95;3.50;;;;;;;7.67;92.86;98240.84;10531017;28;20058;-71
2022/11/22 06:09:25;;;;;;;9.10;4.18;;;;;;;7.61;92.92;98241.41;10525325;28;20106;-69
2022/11/22 06:14:27;;;;;;;6.57;3.70;;;;;;;7.46;93.54;98259.69;10493654;28;20070;-71
2022/11/22 06:19:29;;;;;;;7.63;3.40;;;;;;;7.41;93.20;98246.88;10505563;28;20039;-68
2022/11/22 06:24:30;;;;;;;5.30;3.45;;;;;;;7.35;93.80;98258.09;10502640;28;20062;-68
2022/11/22 06:29:32;;;;;;;8.32;3.85;;;;;;;7.30;93.87;98281.53;10504329;28;20421;-71
2022/11/22 06:34:33;;;;;;;8.10;3.28;;;;;;;7.27;93.84;98276.56;10504092;28;20192;-72
2022/11/22 06:39:35;;;;;;;11.75;3.90;;;;;;;7.07;93.90;98267.91;10508984;28;20062;-70
2022/11/22 06:44:36;;;;;;;11.73;3.85;;;;;;;7.15;93.30;98291.00;10484821;28;20152;-68
2022/11/22 06:49:37;;;;;;;8.80;3.38;;;;;;;7.17;92.53;98296.97;10506275;28;20048;-71
2022/11/22 06:54:39;;;;;;;10.68;3.97;;;;;;;7.21;94.93;98298.31;10499963;28;20135;-73
2022/11/22 06:59:40;;;;;;;10.77;3.45;;;;;;;7.52;91.00;98316.47;10532372;28;20394;-72
2022/11/22 07:04:42;;;;;;;10.48;4.07;;;;;;;7.40;89.45;98313.22;10490429;28;20978;-68
2022/11/22 07:10:03;;;;;;;9.77;3.28;;;;;;;7.37;88.70;98324.97;10504017;28;20676;-70
2022/11/22 07:15:05;;;;;;;10.82;3.20;;;;;;;7.34;89.31;98330.56;10501697;28;20131;-68
2022/11/22 07:20:07;;;;;;;9.38;3.30;;;;;;;7.22;89.33;98331.72;10509606;28;20131;-70
2022/11/22 07:25:09;;;;;;;7.68;3.35;;;;;;;7.18;88.01;98348.91;10509025;28;20063;-68
2022/11/22 07:30:11;;;;;;;13.35;3.55;;;;;;;7.16;88.44;98348.19;10505775;28;20074;-70
2022/11/22 07:35:12;;;;;;;9.02;2.70;;;;;;;7.21;88.10;98344.13;10517412;28;20055;-68
2022/11/22 07:40:14;;;;;;;9.93;3.47;;;;;;;7.13;88.18;98359.09;10518267;28;20509;-68
2022/11/22 07:45:15;;;;;;;11.07;2.95;;;;;;;7.04;89.34;98355.50;10493823;27;20055;-70
2022/11/22 07:50:16;;;;;;;6.55;2.40;;;;;;;7.12;89.88;98373.31;10511646;28;20040;-69
2022/11/22 07:55:18;;;;;;;7.88;3.47;;;;;;;7.19;88.99;98377.88;10511987;28;20052;-68
2022/11/22 08:00:20;;;;;;;11.73;3.45;;;;;;;7.17;89.55;98373.69;10509480;28;20044;-68
2022/11/22 08:05:21;;;;;;;7.22;2.60;;;;;;;7.30;89.02;98383.94;10495268;28;20578;-72
2022/11/22 08:10:22;;;;;;;9.20;3.25;;;;;;;7.39;87.42;98402.41;10510691;28;20680;-72
2022/11/22 08:15:24;;;;;;;9.13;4.38;;;;;;;7.43;86.68;98397.63;10516486;28;20071;-69
2022/11/22 08:20:25;;;;;;;6.32;2.15;;;;;;;7.48;85.11;98410.44;10523893;28;20055;-70
2022/11/22 08:25:27;;;;;;;10.50;2.22;;;;;;;7.55;84.32;98395.59;10551625;27;20429;-73
2022/11/22 08:30:28;;;;;;;7.32;2.88;;;;;;;7.67;82.35;98414.75;10531167;27;20095;-72
2022/11/22 08:35:29;;;;;;;6.38;1.63;;;;;;;7.66;80.85;98431.66;10559855;27;20054;-72
2022/11/22 08:40:31;;;;;;;6.18;2.20;;;;;;;7.69;80.12;98434.81;10528462;28;20099;-70
2022/11/22 08:45:38;;;;;;;7.68;2.63;;;;;;;7.79;80.49;98437.38;10542386;28;20359;-72
2022/11/22 08:50:39;;;;;;;8.18;2.40;;;;;;;7.89;80.37;98426.75;10557574;28;20051;-69
2022/11/22 08:55:41;;;;;;;10.80;2.40;;;;;;;7.99;79.47;98432.81;10546385;28;20052;-72
2022/11/22 09:00:43;;;;;;;9.13;2.78;;;;;;;8.13;80.19;98432.25;10539866;28;20122;-72
2022/11/22 09:05:44;;;;;;;9.13;3.35;;;;;;;8.20;79.63;98426.38;10492966;27;20056;-69
2022/11/22 09:11:12;;;;;;;10.38;2.72;;;;;;;8.27;78.59;98427.38;10501740;27;20318;-71
2022/11/22 09:16:18;;;;;;;6.85;2.17;;;;;;;8.26;77.08;98413.31;10501105;28;20593;-70
2022/11/22 09:21:20;;;;;;;7.22;1.75;;;;;;;8.34;77.12;98417.84;10486381;28;20059;-71
2022/11/22 09:26:24;;;;;;;6.07;2.38;;;;;;;8.42;76.51;98414.41;10506045;28;21341;-72
2022/11/22 09:31:25;;;;;;;7.25;2.80;;;;;;;8.73;75.25;98430.75;10506720;28;20050;-70
2022/11/22 09:36:26;;;;;;;6.15;1.80;;;;;;;8.85;73.71;98437.44;10505326;28;20051;-70
2022/11/22 09:41:40;;;;;;;5.78;2.00;;;;;;;8.88;71.78;98435.47;10507290;27;21124;-72
2022/11/22 09:46:50;;;;;;;7.55;1.73;;;;;;;9.07;70.58;98431.75;10509692;28;20055;-70
2022/11/22 09:52:17;;;;;;;7.05;2.03;;;;;;;9.16;69.99;98436.94;10505937;28;20051;-71
2022/11/22 09:57:26;;;;;;;7.78;1.90;;;;;;;9.42;69.66;98422.78;10498253;28;20040;-71
2022/11/22 10:02:41;;;;;;;7.20;1.77;;;;;;;9.36;68.68;98439.34;10510351;27;21532;-70
2022/11/22 10:08:19;;;;;;;10.07;1.67;;;;;;;9.24;69.57;98435.31;10491762;28;20052;-72
2022/11/22 10:13:28;;;;;;;5.57;1.33;;;;;;;9.03;68.39;98416.13;10536420;28;20058;-71
2022/11/22 10:18:42;;;;;;;11.38;2.83;;;;;;;9.18;67.34;98394.31;10546449;28;20116;-73
2022/11/22 10:23:46;;;;;;;5.47;1.33;;;;;;;9.33;65.96;98403.31;10539423;28;20115;-71
2022/11/22 10:28:51;;;;;;;8.10;1.63;;;;;;;9.11;67.32;98412.72;10490617;28;20051;-72
2022/11/22 10:34:38;;;;;;;5.75;1.95;;;;;;;9.12;67.15;98411.69;10491840;28;20043;-70
2022/11/22 10:39:54;;;;;;;5.90;2.38;;;;;;;8.91;67.66;98424.56;10485167;28;20747;-69
2022/11/22 10:44:59;;;;;;;7.40;1.80;;;;;;;8.88;67.38;98430.16;10503881;28;20108;-71
2022/11/22 10:50:26;;;;;;;6.47;1.88;;;;;;;8.77;66.83;98424.13;10501102;28;20709;-71
2022/11/22 10:55:27;;;;;;;5.07;1.63;;;;;;;8.71;66.79;98430.06;10508800;28;20050;-70
2022/11/22 11:00:31;;;;;;;6.38;1.58;;;;;;;8.64;67.86;98426.38;10511790;28;20048;-70
2022/11/22 11:05:49;;;;;;;5.03;1.57;;;;;;;8.62;67.97;98420.41;10515731;28;20051;-72
2022/11/22 11:11:12;;;;;;;7.32;1.88;;;;;;;8.65;68.33;98420.09;10543378;27;20052;-71
2022/11/22 11:16:19;;;;;;;7.53;3.63;;;;;;;8.68;68.19;98417.13;10509265;27;20059;-69
2022/11/22 11:21:20;;;;;;;9.93;3.10;;;;;;;8.94;67.66;98416.28;10512345;28;20047;-69
2022/11/22 11:26:31;;;;;;;7.93;1.95;;;;;;;9.40;66.12;98416.81;10511444;28;20498;-72
2022/11/22 11:31:47;;;;;;;5.38;2.17;;;;;;;10.04;63.76;98413.59;10508966;28;20273;-70
2022/11/22 11:36:49;;;;;;;6.57;3.80;;;;;;;10.33;62.47;98409.59;10511780;28;20047;-72
2022/11/22 11:41:50;;;;;;;7.85;2.35;;;;;;;12.07;57.97;98418.66;10511328;28;20070;-71
2022/11/22 11:46:52;;;;;;;7.38;3.40;;;;;;;12.82;54.68;98408.97;10515097;27;20529;-72
2022/11/22 11:52:07;;;;;;;8.60;3.42;;;;;;;11.82;56.68;98414.28;10506933;28;20896;-70
2022/11/22 11:57:28;;;;;;;;;;;;;;;10.56;61.44;98415.94;10494912;28;20056;-69
2022/11/22 12:02:40;;;;;;;5.35;1.65;;;;;;;9.79;63.49;98407.41;10526213;28;19934;-70
2022/11/22 12:07:46;;;;;;;5.82;2.47;;;;;;;9.58;64.75;98405.22;10533131;28;20065;-70
2022/11/22 12:12:52;;;;;;;7.82;2.45;;;;;;;9.52;65.58;98412.03;10539526;27;20148;-71
2022/11/22 12:18:13;;;;;;;7.28;1.65;;;;;;;9.64;64.85;98396.63;10529574;28;20310;-71
2022/11/22 12:23:35;;;;;;;7.57;1.42;;;;;;;9.75;64.52;98393.63;10552046;28;20032;-72
2022/11/22 12:28:37;;;;;;;6.18;1.83;;;;;;;9.81;63.54;98374.38;10528909;28;20775;-67
2022/11/22 12:33:42;;;;;;;5.57;1.40;;;;;;;9.97;63.44;98378.03;10500071;28;20772;-68
2022/11/22 12:38:46;;;;;;;6.68;2.78;;;;;;;10.87;59.61;98369.13;10501529;27;20051;-69
2022/11/22 12:43:58;;;;;;;;;;;;;;;10.21;60.82;98385.22;10501306;28;20177;-71
2022/11/22 12:49:06;;;;;;;7.38;1.73;;;;;;;9.78;61.92;98395.97;10500822;28;20010;-68
2022/11/22 12:54:14;;;;;;;5.97;1.48;;;;;;;9.64;61.84;98375.38;10501826;28;22007;-68
2022/11/22 12:59:44;;;;;;;7.70;1.70;;;;;;;9.68;63.24;98376.69;10500761;27;20051;-68
2022/11/22 13:04:54;;;;;;;5.78;2.65;;;;;;;9.99;62.21;98374.22;10501553;28;20150;-69
2022/11/22 13:10:04;;;;;;;3.90;1.38;;;;;;;10.16;60.22;98375.03;10511594;28;20090;-70
2022/11/22 13:15:08;;;;;;;6.32;1.52;;;;;;;10.17;60.13;98366.09;10516987;28;20044;-68
2022/11/22 13:20:19;;;;;;;4.45;1.27;;;;;;;10.48;59.42;98370.75;10501015;28;20490;-68
2022/11/22 13:25:38;;;;;;;5.60;1.23;;;;;;;10.37;58.34;98365.75;10494119;28;20367;-69
2022/11/22 13:31:13;;;;;;;3.65;0.88;;;;;;;10.35;58.61;98355.28;10494828;28;20051;-69
2022/11/22 13:36:35;;;;;;;;;;;;;;;10.32;59.37;98360.09;10540630;28;20055;-69
2022/11/22 13:42:06;;;;;;;7.05;1.13;;;;;;;9.93;59.66;98347.50;10543749;28;19938;-71
2022/11/22 13:47:13;;;;;;;2.33;0.85;;;;;;;9.98;59.89;98358.44;10537652;28;20056;-71
2022/11/22 13:52:14;;;;;;;3.10;0.95;;;;;;;9.75;61.06;98367.06;10539951;28;20036;-70
2022/11/22 13:57:38;;;;;;;5.45;1.77;;;;;;;9.49;62.32;98365.38;10541141;28;20052;-71
2022/11/22 14:02:51;;;;;;;5.13;1.48;;;;;;;9.38;63.13;98368.31;10540612;28;21054;-70
2022/11/22 14:07:55;;;;;;;7.93;1.42;;;;;;;9.13;64.03;98360.28;10526586;28;20043;-68
2022/11/22 14:13:07;;;;;;;6.83;1.87;;;;;;;9.15;64.58;98358.28;10451869;28;1346228;-68
2022/11/22 14:18:44;;;;;;;3.47;1.42;;;;;;;9.03;65.14;98344.47;10499309;28;20042;-68
2022/11/22 14:24:02;;;;;;;3.83;0.88;;;;;;;9.06;64.55;98353.94;10497946;28;20437;-67
2022/11/22 14:29:12;;;;;;;3.95;1.48;;;;;;;8.90;65.01;98348.56;10514843;28;20040;-68
2022/11/22 14:34:17;;;;;;;7.80;2.20;;;;;;;8.96;65.20;98353.25;10524732;28;20066;-71
2022/11/22 14:39:43;;;;;;;5.47;1.33;;;;;;;8.91;65.40;98359.03;10522816;28;20537;-68
2022/11/22 14:44:45;;;;;;;5.82;1.88;;;;;;;8.99;65.68;98358.22;10521206;28;20158;-69
2022/11/22 14:49:48;;;;;;;7.28;1.42;;;;;;;8.88;66.06;98361.19;10520014;28;20052;-70
2022/11/22 14:54:55;;;;;;;9.88;4.35;;;;;;;8.73;66.54;98359.13;10506519;28;20047;-69
2022/11/22 15:00:06;;;;;;;11.85;10.77;;;;;;;8.77;67.29;98363.13;10520081;28;20676;-69
2022/11/22 15:05:29;;;;;;;9.75;4.78;;;;;;;8.75;68.15;98374.88;10521003;28;20075;-69
2022/11/22 15:11:21;;;;;;;12.40;11.13;;;;;;;8.74;70.08;98386.50;10504190;28;20040;-70
2022/11/22 15:16:26;;;;;;;5.40;1.85;;;;;;;8.58;70.81;98377.44;10519013;28;20458;-69
2022/11/22 15:21:47;;;;;;;;;;;;;;;8.60;72.02;98391.38;10518962;28;20043;-70
2022/11/22 15:27:29;;;;;;;1.88;0.90;;;;;;;8.48;73.17;98388.16;10522959;28;19967;-70
2022/11/22 15:32:52;;;;;;;5.50;1.15;;;;;;;8.39;73.48;98393.50;10521829;28;20317;-69
2022/11/22 15:38:13;;;;;;;4.75;2.58;;;;;;;8.30;73.28;98403.22;10523539;28;20040;-70
2022/11/22 15:43:35;;;;;;;3.25;1.77;;;;;;;8.25;73.31;98418.78;10522149;28;20056;-69
2022/11/22 15:48:58;;;;;;;5.43;1.38;;;;;;;8.25;72.53;98416.94;10531749;28;20104;-70
2022/11/22 15:54:22;;;;;;;3.67;2.17;;;;;;;8.27;73.21;98432.69;10551770;28;20105;-69
2022/11/22 15:59:47;;;;;;;9.77;7.35;;;;;;;8.30;73.11;98443.00;10529674;28;20797;-71
2022/11/22 16:04:51;;;;;;;1.40;1.00;;;;;;;8.29;73.79;98444.81;10520837;28;20548;-70
2022/11/22 16:10:44;;;;;;;2.47;0.75;;;;;;;8.31;73.66;98463.22;10527023;28;20129;-71
2022/11/22 16:16:10;;;;;;;6.35;4.00;;;;;;;8.37;73.89;98459.13;10536382;27;20032;-71
2022/11/22 16:21:14;;;;;;;17.08;11.30;;;;;;;8.39;73.78;98458.00;10548450;28;20418;-71
2022/11/22 16:26:28;;;;;;;37.83;31.90;;;;;;;8.35;73.84;98455.78;10564681;28;20048;-71
2022/11/22 16:31:30;;;;;;;12.52;9.68;;;;;;;8.35;74.46;98453.97;10559074;28;20040;-71
2022/11/22 16:36:32;;;;;;;14.40;11.25;;;;;;;8.30;74.51;98459.75;10533000;27;20059;-70
2022/11/22 16:41:34;;;;;;;33.00;27.00;;;;;;;8.37;74.54;98465.25;10519960;28;20051;-73
2022/11/22 16:46:35;;;;;;;4.07;3.17;;;;;;;8.36;74.67;98468.91;10564086;28;20050;-72
2022/11/22 16:51:43;;;;;;;4.47;2.67;;;;;;;8.43;74.89;98463.81;10564876;28;20203;-72
2022/11/22 16:56:45;;;;;;;5.45;2.22;;;;;;;8.39;74.98;98468.59;10544107;28;20087;-71
2022/11/22 17:01:47;;;;;;;6.63;4.28;;;;;;;8.38;75.38;98474.06;10526425;27;20272;-71
2022/11/22 17:06:50;;;;;;;4.90;2.97;;;;;;;8.29;76.66;98486.41;10523500;28;20048;-72
2022/11/22 17:11:51;;;;;;;2.95;1.95;;;;;;;8.30;77.63;98496.00;10520061;28;20058;-70
2022/11/22 17:16:52;;;;;;;2.88;2.60;;;;;;;8.29;78.37;98489.88;10521335;28;20036;-70
2022/11/22 17:21:54;;;;;;;3.22;1.40;;;;;;;8.41;77.85;98503.75;10525294;28;20048;-71
2022/11/22 17:26:55;;;;;;;2.35;1.50;;;;;;;8.39;78.00;98500.41;10522479;28;20534;-69
2022/11/22 17:31:57;;;;;;;2.63;1.40;;;;;;;8.36;78.58;98506.03;10525068;28;20623;-70
2022/11/22 17:36:58;;;;;;;2.78;1.77;;;;;;;8.27;79.61;98506.91;10529226;28;20074;-71
2022/11/22 17:41:59;;;;;;;5.97;3.58;;;;;;;8.16;81.72;98512.47;10526792;28;20056;-70
2022/11/22 17:47:01;;;;;;;11.57;6.50;;;;;;;8.12;82.89;98515.41;10517182;28;20056;-70
2022/11/22 17:52:02;;;;;;;5.03;3.83;;;;;;;8.10;82.89;98516.53;10527461;28;20040;-71
2022/11/22 17:57:03;;;;;;;3.90;1.30;;;;;;;8.16;82.83;98525.72;10525240;28;20062;-71
2022/11/22 18:02:05;;;;;;;2.67;1.70;;;;;;;8.12;83.25;98523.38;10534429;28;20054;-69
2022/11/22 18:07:06;;;;;;;2.85;1.50;;;;;;;8.16;82.84;98523.06;10522778;28;20044;-70
2022/11/22 18:12:08;;;;;;;2.88;1.60;;;;;;;8.19;82.82;98517.47;10532764;28;20056;-71
2022/11/22 18:17:09;;;;;;;3.33;1.20;;;;;;;8.25;82.85;98530.94;10557950;28;20082;-70
2022/11/22 18:22:22;;;;;;;1.73;1.30;;;;;;;8.10;83.81;98517.34;10547576;28;20090;-71
2022/11/22 18:27:23;;;;;;;3.83;2.17;;;;;;;8.06;85.41;98526.63;10534682;28;20071;-69
2022/11/22 18:32:25;;;;;;;4.00;2.17;;;;;;;8.11;85.72;98524.34;10560608;28;20057;-71
2022/11/22 18:37:26;;;;;;;2.95;1.60;;;;;;;8.04;86.33;98528.56;10545346;28;20699;-69
2022/11/22 18:42:27;;;;;;;3.97;1.70;;;;;;;8.04;86.22;98536.50;10530070;28;20060;-70
2022/11/22 18:47:29;;;;;;;2.72;1.65;;;;;;;8.14;86.07;98539.94;10521969;28;20804;-69
2022/11/22 18:52:33;;;;;;;2.72;1.95;;;;;;;8.12;86.23;98541.06;10522272;28;20064;-70
2022/11/22 18:57:34;;;;;;;3.03;1.90;;;;;;;8.12;86.71;98547.22;10516702;28;20052;-70
2022/11/22 19:02:36;;;;;;;2.55;1.83;;;;;;;8.11;86.35;98527.00;10524188;28;20048;-71
2022/11/22 19:07:38;;;;;;;3.35;2.20;;;;;;;8.14;86.54;98545.25;10531135;28;20051;-71
2022/11/22 19:12:39;;;;;;;3.45;2.42;;;;;;;8.05;86.96;98540.84;10522328;28;20560;-74
2022/11/22 19:17:41;;;;;;;5.57;2.88;;;;;;;8.00;86.99;98527.22;10526571;27;20055;-68
2022/11/22 19:22:42;;;;;;;5.63;3.75;;;;;;;8.18;87.04;98536.97;10527953;28;20802;-73
2022/11/22 19:27:46;;;;;;;4.40;3.25;;;;;;;8.18;86.77;98540.50;10522095;28;20048;-70
2022/11/22 19:32:48;;;;;;;2.67;2.30;;;;;;;8.18;87.06;98544.94;10542450;28;20050;-70
2022/11/22 19:37:51;;;;;;;4.93;2.33;;;;;;;7.97;87.76;98536.28;10513402;28;20056;-72
2022/11/22 19:42:52;;;;;;;4.35;2.58;;;;;;;7.97;88.34;98538.94;10520074;28;20098;-71
2022/11/22 19:47:54;;;;;;;4.93;2.00;;;;;;;7.84;88.96;98537.63;10526495;28;20052;-69
2022/11/22 19:52:55;;;;;;;10.18;7.15;;;;;;;7.77;89.75;98537.38;10528581;28;20053;-69
2022/11/22 19:57:56;;;;;;;5.13;3.20;;;;;;;7.79;89.75;98552.16;10525556;27;20050;-71
2022/11/22 20:02:58;;;;;;;2.63;2.10;;;;;;;7.74;89.73;98559.69;10531518;28;20059;-72
2022/11/22 20:07:59;;;;;;;3.75;2.72;;;;;;;7.71;89.98;98553.84;10548485;27;20598;-71
2022/11/22 20:13:01;;;;;;;4.57;2.70;;;;;;;7.68;90.42;98562.91;10555229;28;20074;-71
2022/11/22 20:18:04;;;;;;;3.47;2.50;;;;;;;7.62;90.59;98560.84;10554509;28;20732;-70
2022/11/22 20:23:05;;;;;;;9.75;6.85;;;;;;;7.63;90.70;98566.97;10532087;28;20047;-71
2022/11/22 20:28:06;;;;;;;3.92;2.53;;;;;;;7.56;90.65;98572.03;10526974;27;20043;-72
2022/11/22 20:33:08;;;;;;;5.07;3.15;;;;;;;7.47;91.49;98579.03;10531056;28;20044;-69
2022/11/22 20:38:09;;;;;;;15.20;11.38;;;;;;;7.40;92.12;98588.53;10527708;28;20047;-70
2022/11/22 20:43:10;;;;;;;5.25;3.65;;;;;;;7.35;92.38;98591.59;10527550;28;20048;-69
2022/11/22 20:48:13;;;;;;;7.03;4.00;;;;;;;7.33;92.80;98603.34;10522843;28;20074;-68
2022/11/22 20:53:15;;;;;;;5.93;3.20;;;;;;;7.30;92.87;98604.44;10524949;28;20048;-70
2022/11/22 20:58:16;;;;;;;10.07;5.38;;;;;;;7.41;92.27;98614.03;10528817;28;20797;-71
2022/11/22 21:03:18;;;;;;;7.30;4.32;;;;;;;7.51;91.79;98616.66;10518980;28;20058;-72
2022/11/22 21:08:21;;;;;;;3.83;2.67;;;;;;;7.53;90.98;98614.69;10554090;28;20055;-70
2022/11/22 21:13:22;;;;;;;6.50;2.88;;;;;;;7.55;91.28;98633.91;10567898;28;20066;-71
2022/11/22 21:18:24;;;;;;;12.50;10.18;;;;;;;7.48;91.15;98628.38;10568175;28;21005;-71
2022/11/22 21:23:26;;;;;;;6.38;2.60;;;;;;;7.51;90.94;98637.84;10560800;28;20039;-72
2022/11/22 21:28:27;;;;;;;5.68;2.42;;;;;;;7.51;90.48;98637.84;10551557;28;20063;-72
2022/11/22 21:33:31;;;;;;;6.95;3.28;;;;;;;7.52;90.42;98629.75;10538787;28;20517;-70
2022/11/22 21:38:39;;;;;;;6.60;2.60;;;;;;;7.33;90.57;98627.97;10553484;28;20059;-70
2022/11/22 21:43:40;;;;;;;5.82;2.63;;;;;;;7.31;91.23;98632.59;10548567;28;20067;-70
2022/11/22 21:48:49;;;;;;;4.00;2.45;;;;;;;7.44;90.59;98629.63;10543698;28;20754;-71
2022/11/22 21:53:51;;;;;;;5.43;2.05;;;;;;;7.38;90.01;98628.38;10547780;27;20048;-70
2022/11/22 21:58:52;;;;;;;3.08;2.03;;;;;;;7.44;90.00;98642.84;10559420;28;20052;-74
2022/11/22 22:03:54;;;;;;;5.05;2.15;;;;;;;7.44;89.49;98643.69;10537109;28;20110;-70
2022/11/22 22:08:55;;;;;;;7.30;2.50;;;;;;;7.48;89.10;98648.72;10541398;27;20139;-71
2022/11/22 22:13:57;;;;;;;7.20;2.58;;;;;;;7.46;88.87;98645.38;10539383;28;20063;-71
2022/11/22 22:18:59;;;;;;;6.63;2.40;;;;;;;7.51;88.19;98659.03;10526800;28;20179;-71
2022/11/22 22:24:10;;;;;;;5.32;2.40;;;;;;;7.57;87.34;98658.44;10530944;28;20055;-73
2022/11/22 22:29:11;;;;;;;5.18;1.83;;;;;;;7.59;87.16;98665.25;10527367;28;20052;-70
2022/11/22 22:34:15;;;;;;;3.83;2.10;;;;;;;7.56;86.45;98662.06;10541273;28;20058;-70
2022/11/22 22:39:16;;;;;;;5.03;2.05;;;;;;;7.66;85.90;98670.00;10520228;28;20723;-70
2022/11/22 22:44:17;;;;;;;6.28;2.22;;;;;;;7.73;85.05;98673.72;10524976;28;20047;-71
2022/11/22 22:49:19;;;;;;;4.63;2.25;;;;;;;7.79;84.46;98678.44;10522727;28;20056;-70
2022/11/22 22:54:21;;;;;;;6.90;2.22;;;;;;;7.85;83.94;98677.03;10530384;28;20046;-71
2022/11/22 22:59:22;;;;;;;7.07;2.55;;;;;;;7.88;83.61;98674.09;10536766;28;20047;-70
2022/11/22 23:04:23;;;;;;;6.85;2.05;;;;;;;7.96;82.83;98680.34;10536455;27;20090;-70
2022/11/22 23:09:25;;;;;;;4.05;2.22;;;;;;;7.93;82.43;98685.09;10548631;28;20059;-72
2022/11/22 23:14:28;;;;;;;4.10;1.65;;;;;;;8.00;82.73;98690.66;10569724;28;20130;-70
2022/11/22 23:19:30;;;;;;;5.85;1.83;;;;;;;8.00;82.06;98691.50;10535068;28;20039;-69
2022/11/22 23:24:32;;;;;;;5.18;1.65;;;;;;;7.95;81.85;98688.44;10531464;28;20119;-70
2022/11/22 23:29:34;;;;;;;5.47;1.92;;;;;;;8.01;82.07;98687.84;10534152;28;20063;-70
2022/11/22 23:34:36;;;;;;;2.30;1.30;;;;;;;8.00;81.42;98686.19;10530517;28;20056;-70
2022/11/22 23:39:37;;;;;;;4.63;1.55;;;;;;;8.07;81.14;98697.88;10536705;28;20055;-70
2022/11/22 23:44:38;;;;;;;5.43;1.42;;;;;;;8.00;81.03;98695.94;10537716;28;20103;-71
2022/11/22 23:49:40;;;;;;;6.30;2.13;;;;;;;8.02;80.21;98692.19;10540038;28;20046;-70
2022/11/22 23:54:41;;;;;;;8.35;2.13;;;;;;;8.04;80.95;98694.69;10537314;28;20113;-69
2022/11/22 23:59:42;;;;;;;5.90;1.33;;;;;;;8.07;80.88;98697.88;10510239;28;20055;-70
